Hampton, NH

11:18 PM EDT on May 23, 2017 (GMT -0400)
Hampton River Marina | | Change Station

Elev 0 ft 42.90 °N, 70.82 °W | Updated 42 seconds ago

Mostly Cloudy
Mostly Cloudy
54.9 °F
Feels Like 54.9 °F
N
0.0
Wind Variable Wind from SW

Today
High -- | Low -- °F
--% Chance of Precip.
Yesterday
High -- | Low -- °F
Precip. -- in
Pressure 29.81 in
Visibility 10.0 miles
Clouds Overcast 20000 ft
Dew Point 53 °F
Humidity 96%
Rainfall 0.00 in
Snow Depth Not available.
5:12 AM 8:07 PM
Waning Crescent, 4% visible
METAR KPSM 240258Z 00000KT 10SM OVC200 12/11 A2980 RMK AO2A SLP095 T01230106 53004
Pressure 29.81 in
Visibility 10.0 miles
Clouds Overcast 20000 ft
Dew Point 53 °F
Humidity 96%
Rainfall 0.00 in
Snow Depth Not available.
5:12 AM 8:07 PM
Waning Crescent, 4% visible
METAR KPSM 240258Z 00000KT 10SM OVC200 12/11 A2980 RMK AO2A SLP095 T01230106 53004

Get Severe Weather Alerts

Thanks for signing up!

Be on the lookout for a verification email in your inbox.

You'll start receiving the daily forecast at 6 AM.

×

10-Day Weather Forecast

Almanac

Astronomy

May. 23, 2017 Rise Set
Actual Time
Civil Twilight
Nautical Twilight
Astronomical Twilight
Moon
Length of Visible Light
Length of Day
Tomorrow will be .
, % of the Moon is Illuminated

Today's Extremes

State Highs State Lows

Community

WunderPhotos

Category 6

Welcome to Category 6. This is the collective home for Weather Underground's featured writeups by Dr. Jeff Masters (right), Bob Henson (left), Chris Burt, and other regular contributors.

Nearby

Air Quality

  Air Quality AQ Index Pollutant
Not available.

Snow Depth

Station Depth Elevation

Earthquake Activity

City Distance Mag. Time & Date
Minimum magnitude displayed is 2.5.

Coastal Water Temperatures

Place Temperature

Stations

Nearby Weather Stations

Station Location Temp. Windchill Dew Point Humidity Wind Precip. Elev Updated Type
                   

Watches & Warnings

There are currently no watches in effect.